Time,TemperatureF,DewpointF,PressureIn,WindDirection,WindDirectionDegrees,WindSpeedMPH,WindSpeedGustMPH,Humidity,HourlyPrecipIn,Conditions,Clouds,dailyrainin,SolarRadiationWatts/m^2,SoftwareType,DateUTC
2013-06-30 00:03:00,63.1,58.0,29.86,North,355,0.0,4.0,83,0.00,,,0.00,0,weatherlink.com 1.10,2013-06-30 05:03:00,
2013-06-30 00:18:00,62.7,58.0,29.86,North,360,5.0,7.0,85,0.00,,,0.00,0,weatherlink.com 1.10,2013-06-30 05:18:00,
2013-06-30 00:34:00,62.8,58.0,29.86,North,5,1.0,6.0,84,0.00,,,0.00,0,weatherlink.com 1.10,2013-06-30 05:34:00,
2013-06-30 00:49:00,62.5,57.0,29.86,North,5,1.0,6.0,83,0.00,,,0.00,0,weatherlink.com 1.10,2013-06-30 05:49:00,
2013-06-30 01:04:00,62.3,57.0,29.87,North,360,3.0,7.0,82,0.00,,,0.00,0,weatherlink.com 1.10,2013-06-30 06:04:00,
2013-06-30 01:19:00,62.0,56.0,29.87,North,11,4.0,7.0,82,0.00,,,0.00,0,weatherlink.com 1.10,2013-06-30 06:19:00,
2013-06-30 01:34:00,61.7,56.0,29.87,North,360,4.0,5.0,81,0.00,,,0.00,0,weatherlink.com 1.10,2013-06-30 06:34:00,
2013-06-30 01:49:00,60.9,55.0,29.87,NNW,346,0.0,5.0,82,0.00,,,0.00,0,weatherlink.com 1.10,2013-06-30 06:49:00,
2013-06-30 02:04:00,60.2,55.0,29.86,North,355,2.0,7.0,84,0.00,,,0.00,0,weatherlink.com 1.10,2013-06-30 07:04:00,
2013-06-30 02:19:00,60.0,56.0,29.87,North,5,3.0,6.0,85,0.00,,,0.00,0,weatherlink.com 1.10,2013-06-30 07:19:00,
2013-06-30 02:34:00,59.6,56.0,29.87,North,5,1.0,9.0,86,0.00,,,0.00,0,weatherlink.com 1.10,2013-06-30 07:34:00,
2013-06-30 02:49:00,59.3,55.0,29.88,North,350,2.0,5.0,84,0.00,,,0.00,0,weatherlink.com 1.10,2013-06-30 07:49:00,
2013-06-30 03:04:00,58.6,54.0,29.88,NNW,339,1.0,7.0,84,0.00,,,0.00,0,weatherlink.com 1.10,2013-06-30 08:04:00,
2013-06-30 03:19:00,58.1,53.0,29.88,North,355,2.0,5.0,84,0.00,,,0.00,0,weatherlink.com 1.10,2013-06-30 08:19:00,
2013-06-30 03:34:00,57.6,53.0,29.88,North,360,0.0,4.0,84,0.00,,,0.00,0,weatherlink.com 1.10,2013-06-30 08:34:00,
2013-06-30 03:49:00,57.3,52.0,29.88,NNW,348,2.0,4.0,83,0.00,,,0.00,0,weatherlink.com 1.10,2013-06-30 08:49:00,
2013-06-30 04:04:00,57.2,52.0,29.88,North,9,1.0,4.0,82,0.00,,,0.00,0,weatherlink.com 1.10,2013-06-30 09:04:00,
2013-06-30 04:19:00,56.8,52.0,29.89,North,360,1.0,2.0,83,0.00,,,0.00,0,weatherlink.com 1.10,2013-06-30 09:19:00,
2013-06-30 04:34:00,56.3,51.0,29.89,North,355,1.0,3.0,83,0.00,,,0.00,0,weatherlink.com 1.10,2013-06-30 09:34:00,
2013-06-30 04:49:00,56.1,51.0,29.90,North,355,1.0,4.0,83,0.00,,,0.00,0,weatherlink.com 1.10,2013-06-30 09:49:00,
2013-06-30 05:04:00,55.7,51.0,29.90,North,360,0.0,4.0,84,0.00,,,0.00,0,weatherlink.com 1.10,2013-06-30 10:04:00,
2013-06-30 05:19:00,55.5,50.0,29.91,North,5,2.0,4.0,83,0.00,,,0.00,0,weatherlink.com 1.10,2013-06-30 10:19:00,
2013-06-30 05:34:00,55.7,51.0,29.91,North,5,2.0,6.0,83,0.00,,,0.00,9,weatherlink.com 1.10,2013-06-30 10:34:00,
2013-06-30 05:49:00,55.8,51.0,29.92,North,5,0.0,5.0,83,0.00,,,0.00,19,weatherlink.com 1.10,2013-06-30 10:49:00,
2013-06-30 06:04:00,55.9,51.0,29.92,North,11,5.0,5.0,82,0.00,,,0.00,39,weatherlink.com 1.10,2013-06-30 11:04:00,
2013-06-30 06:19:00,56.3,51.0,29.92,North,360,3.0,5.0,82,0.00,,,0.00,62,weatherlink.com 1.10,2013-06-30 11:19:00,
2013-06-30 06:34:00,57.0,51.0,29.93,NNW,345,1.0,8.0,81,0.00,,,0.00,93,weatherlink.com 1.10,2013-06-30 11:34:00,
2013-06-30 06:49:00,57.9,52.0,29.94,NNW,348,4.0,7.0,81,0.00,,,0.00,137,weatherlink.com 1.10,2013-06-30 11:49:00,
2013-06-30 07:04:00,59.2,52.0,29.94,NNW,336,5.0,6.0,78,0.00,,,0.00,183,weatherlink.com 1.10,2013-06-30 12:04:00,
2013-06-30 07:20:00,60.5,53.0,29.94,NE,44,2.0,7.0,77,0.00,,,0.00,225,weatherlink.com 1.10,2013-06-30 12:20:00,
2013-06-30 07:35:00,61.5,54.0,29.94,NNW,343,3.0,8.0,77,0.00,,,0.00,281,weatherlink.com 1.10,2013-06-30 12:35:00,
2013-06-30 07:50:00,61.8,54.0,29.95,North,5,0.0,7.0,75,0.00,,,0.00,241,weatherlink.com 1.10,2013-06-30 12:50:00,
2013-06-30 08:05:00,63.1,54.0,29.95,North,355,3.0,6.0,73,0.00,,,0.00,367,weatherlink.com 1.10,2013-06-30 13:05:00,
2013-06-30 08:20:00,62.9,55.0,29.96,NNE,19,2.0,7.0,75,0.00,,,0.00,302,weatherlink.com 1.10,2013-06-30 13:20:00,
2013-06-30 08:35:00,63.3,55.0,29.96,North,5,2.0,9.0,75,0.00,,,0.00,373,weatherlink.com 1.10,2013-06-30 13:35:00,
2013-06-30 08:50:00,64.1,56.0,29.96,NNE,13,2.0,7.0,74,0.00,,,0.00,489,weatherlink.com 1.10,2013-06-30 13:50:00,
2013-06-30 09:05:00,64.9,57.0,29.96,NNE,13,3.0,9.0,76,0.00,,,0.00,534,weatherlink.com 1.10,2013-06-30 14:05:00,
2013-06-30 09:20:00,65.7,58.0,29.96,North,10,4.0,9.0,75,0.00,,,0.00,566,weatherlink.com 1.10,2013-06-30 14:20:00,
2013-06-30 09:35:00,66.6,59.0,29.96,NNW,348,4.0,10.0,76,0.00,,,0.00,594,weatherlink.com 1.10,2013-06-30 14:35:00,
2013-06-30 09:50:00,67.5,59.0,29.97,NE,54,3.0,7.0,73,0.00,,,0.00,643,weatherlink.com 1.10,2013-06-30 14:50:00,
2013-06-30 10:20:00,68.8,60.0,29.97,North,355,6.0,9.0,73,0.00,,,0.00,570,weatherlink.com 1.10,2013-06-30 15:20:00,
2013-06-30 10:35:00,69.6,61.0,29.97,NE,38,4.0,8.0,73,0.00,,,0.00,745,weatherlink.com 1.10,2013-06-30 15:35:00,
2013-06-30 10:50:00,69.8,62.0,29.98,North,11,2.0,10.0,75,0.00,,,0.00,784,weatherlink.com 1.10,2013-06-30 15:50:00,
2013-06-30 11:05:00,70.3,61.0,29.98,NNE,27,2.0,10.0,72,0.00,,,0.00,809,weatherlink.com 1.10,2013-06-30 16:05:00,
2013-06-30 11:20:00,71.0,61.0,29.98,North,10,3.0,9.0,71,0.00,,,0.00,594,weatherlink.com 1.10,2013-06-30 16:20:00,
2013-06-30 11:36:00,71.6,62.0,29.98,North,10,1.0,7.0,71,0.00,,,0.00,617,weatherlink.com 1.10,2013-06-30 16:36:00,
2013-06-30 11:51:00,72.0,63.0,29.98,North,11,2.0,8.0,73,0.00,,,0.00,865,weatherlink.com 1.10,2013-06-30 16:51:00,
2013-06-30 12:06:00,72.7,62.0,29.98,ENE,63,1.0,9.0,70,0.00,,,0.00,867,weatherlink.com 1.10,2013-06-30 17:06:00,
2013-06-30 12:21:00,72.7,62.0,29.98,NE,36,0.0,10.0,70,0.00,,,0.00,900,weatherlink.com 1.10,2013-06-30 17:21:00,
2013-06-30 12:36:00,73.1,61.0,29.98,NNE,12,5.0,9.0,67,0.00,,,0.00,881,weatherlink.com 1.10,2013-06-30 17:36:00,
2013-06-30 12:51:00,73.7,62.0,29.99,North,5,2.0,8.0,68,0.00,,,0.00,914,weatherlink.com 1.10,2013-06-30 17:51:00,
2013-06-30 13:06:00,74.0,61.0,29.99,NNW,348,9.0,9.0,63,0.00,,,0.00,919,weatherlink.com 1.10,2013-06-30 18:06:00,
2013-06-30 13:21:00,74.2,60.0,29.99,NNE,26,2.0,13.0,62,0.00,,,0.00,928,weatherlink.com 1.10,2013-06-30 18:21:00,
2013-06-30 13:36:00,74.5,60.0,29.99,NE,52,3.0,10.0,61,0.00,,,0.00,842,weatherlink.com 1.10,2013-06-30 18:36:00,
2013-06-30 13:51:00,74.9,59.0,29.99,NNE,22,2.0,6.0,59,0.00,,,0.00,904,weatherlink.com 1.10,2013-06-30 18:51:00,
2013-06-30 14:06:00,74.5,57.0,29.99,North,9,6.0,10.0,54,0.00,,,0.00,837,weatherlink.com 1.10,2013-06-30 19:06:00,
2013-06-30 14:21:00,74.4,59.0,29.99,ENE,59,2.0,9.0,60,0.00,,,0.00,837,weatherlink.com 1.10,2013-06-30 19:21:00,
2013-06-30 14:36:00,74.4,58.0,30.00,ENE,69,8.0,10.0,56,0.00,,,0.00,856,weatherlink.com 1.10,2013-06-30 19:36:00,
2013-06-30 14:51:00,74.5,60.0,29.99,NE,39,7.0,9.0,60,0.00,,,0.00,807,weatherlink.com 1.10,2013-06-30 19:51:00,
2013-06-30 15:06:00,74.3,57.0,29.99,NNE,12,7.0,12.0,55,0.00,,,0.00,754,weatherlink.com 1.10,2013-06-30 20:06:00,
2013-06-30 15:21:00,73.8,55.0,29.99,NNE,19,3.0,14.0,53,0.00,,,0.00,682,weatherlink.com 1.10,2013-06-30 20:21:00,
2013-06-30 15:36:00,73.5,55.0,30.00,NE,55,2.0,12.0,53,0.00,,,0.00,679,weatherlink.com 1.10,2013-06-30 20:36:00,
2013-06-30 15:51:00,73.5,56.0,30.00,NE,43,5.0,9.0,55,0.00,,,0.00,661,weatherlink.com 1.10,2013-06-30 20:51:00,
2013-06-30 16:06:00,73.6,57.0,30.00,NE,56,4.0,9.0,56,0.00,,,0.00,700,weatherlink.com 1.10,2013-06-30 21:06:00,
2013-06-30 16:21:00,73.8,54.0,30.01,ENE,57,7.0,11.0,50,0.00,,,0.00,631,weatherlink.com 1.10,2013-06-30 21:21:00,
2013-06-30 16:36:00,73.6,53.0,30.01,NNE,28,4.0,10.0,48,0.00,,,0.00,643,weatherlink.com 1.10,2013-06-30 21:36:00,
2013-06-30 16:51:00,73.9,53.0,30.01,North,9,3.0,10.0,48,0.00,,,0.00,584,weatherlink.com 1.10,2013-06-30 21:51:00,
2013-06-30 17:06:00,73.6,52.0,30.01,NE,44,5.0,7.0,47,0.00,,,0.00,561,weatherlink.com 1.10,2013-06-30 22:06:00,
2013-06-30 17:21:00,73.1,53.0,30.01,ENE,60,3.0,9.0,50,0.00,,,0.00,476,weatherlink.com 1.10,2013-06-30 22:21:00,
2013-06-30 17:36:00,73.3,54.0,30.01,North,5,4.0,8.0,52,0.00,,,0.00,462,weatherlink.com 1.10,2013-06-30 22:36:00,
2013-06-30 17:51:00,73.2,54.0,30.01,NNE,26,1.0,7.0,51,0.00,,,0.00,432,weatherlink.com 1.10,2013-06-30 22:51:00,
2013-06-30 18:06:00,73.0,53.0,30.02,NE,43,3.0,5.0,49,0.00,,,0.00,357,weatherlink.com 1.10,2013-06-30 23:06:00,
2013-06-30 18:21:00,72.2,54.0,30.02,ENE,62,1.0,5.0,53,0.00,,,0.00,287,weatherlink.com 1.10,2013-06-30 23:21:00,
2013-06-30 18:36:00,71.8,56.0,30.02,ENE,62,0.0,5.0,57,0.00,,,0.00,169,weatherlink.com 1.10,2013-06-30 23:36:00,
2013-06-30 18:51:00,71.0,58.0,30.02,NE,43,0.0,2.0,63,0.00,,,0.00,195,weatherlink.com 1.10,2013-06-30 23:51:00,
2013-06-30 19:06:00,71.0,58.0,30.02,ENE,70,0.0,2.0,64,0.00,,,0.00,155,weatherlink.com 1.10,2013-07-01 00:06:00,
2013-06-30 19:21:00,70.7,58.0,30.02,ENE,70,1.0,2.0,64,0.00,,,0.00,109,weatherlink.com 1.10,2013-07-01 00:21:00,
2013-06-30 19:36:00,69.8,59.0,30.02,ENE,70,0.0,1.0,68,0.00,,,0.00,84,weatherlink.com 1.10,2013-07-01 00:36:00,
2013-06-30 19:51:00,68.9,57.0,30.02,ENE,70,0.0,0.0,66,0.00,,,0.00,40,weatherlink.com 1.10,2013-07-01 00:51:00,
2013-06-30 20:06:00,67.9,56.0,30.02,ENE,70,0.0,1.0,67,0.00,,,0.00,26,weatherlink.com 1.10,2013-07-01 01:06:00,
2013-06-30 20:21:00,67.6,57.0,30.02,ENE,70,0.0,1.0,68,0.00,,,0.00,19,weatherlink.com 1.10,2013-07-01 01:21:00,
2013-06-30 20:36:00,66.8,56.0,30.03,ENE,70,0.0,0.0,68,0.00,,,0.00,0,weatherlink.com 1.10,2013-07-01 01:36:00,
2013-06-30 20:51:00,66.2,56.0,30.03,ENE,70,0.0,0.0,69,0.00,,,0.00,0,weatherlink.com 1.10,2013-07-01 01:51:00,
2013-06-30 21:06:00,65.5,55.0,30.03,ENE,70,0.0,0.0,69,0.00,,,0.00,0,weatherlink.com 1.10,2013-07-01 02:06:00,
2013-06-30 21:21:00,65.0,54.0,30.04,ENE,70,0.0,0.0,68,0.00,,,0.00,0,weatherlink.com 1.10,2013-07-01 02:21:00,
2013-06-30 21:36:00,64.8,54.0,30.05,ENE,70,0.0,0.0,69,0.00,,,0.00,0,weatherlink.com 1.10,2013-07-01 02:36:00,
2013-06-30 21:51:00,64.1,55.0,30.05,ENE,70,0.0,0.0,73,0.00,,,0.00,0,weatherlink.com 1.10,2013-07-01 02:51:00,
2013-06-30 22:06:00,63.4,55.0,30.05,ENE,70,0.0,0.0,74,0.00,,,0.00,0,weatherlink.com 1.10,2013-07-01 03:06:00,
2013-06-30 22:21:00,62.8,55.0,30.05,ENE,70,0.0,0.0,75,0.00,,,0.00,0,weatherlink.com 1.10,2013-07-01 03:21:00,
2013-06-30 22:36:00,62.2,55.0,30.05,ENE,70,0.0,0.0,76,0.00,,,0.00,0,weatherlink.com 1.10,2013-07-01 03:36:00,
2013-06-30 22:51:00,61.5,55.0,30.06,ENE,70,0.0,0.0,79,0.00,,,0.00,0,weatherlink.com 1.10,2013-07-01 03:51:00,
2013-06-30 23:06:00,60.3,54.0,30.06,ENE,70,0.0,0.0,80,0.00,,,0.00,0,weatherlink.com 1.10,2013-07-01 04:06:00,
2013-06-30 23:21:00,59.7,54.0,30.05,ENE,70,0.0,0.0,80,0.00,,,0.00,0,weatherlink.com 1.10,2013-07-01 04:21:00,
2013-06-30 23:36:00,59.8,54.0,30.06,ENE,70,0.0,0.0,80,0.00,,,0.00,0,weatherlink.com 1.10,2013-07-01 04:36:00,
2013-06-30 23:51:00,60.0,53.0,30.06,ENE,70,0.0,0.0,79,0.00,,,0.00,0,weatherlink.com 1.10,2013-07-01 04:51:00,